• Join FlightAware (Why Join?)
  • Login
  • US Flag 
10:47AM EDT


 

Airport Tracker/Info


-or-


 

Live Flight TrackerFlight Track Log ✈ SKW5631 ✈ 26-Jul-2013 ✈ KSFO - KBUR

Flight Track Log - Related Links

Times and Time Zones

All times are in EDT time to prevent confusion due to time zone crossing. See the SKW5631 flight status page for this flight to view local times or setup timezone preferences in your user account.

Time Position Orientation Groundspeed Altitude Reporting Facility
EDT Latitude Longitude Course Direction KTS MPH feet Rate Location/Type
10:11PM 37.6453 -122.3647 133° Southeast 171 197 27,000  Level Oakland Center
10:12PM 37.6883 -122.3633 North 193 222 2,500 -11,400 Descending Oakland Center
10:13PM 37.7125 -122.4150 301° West 240 276 3,700 2,100 Climbing Oakland Center
10:14PM 37.3599 -122.2385 136° Southeast  Level FlightAware Approximate
10:14PM 37.6233 -122.4283 187° South 271 312 6,800  Level Oakland Center
10:15PM 37.2726 -122.1172 130° Southeast  Level FlightAware Approximate
10:15PM 37.5433 -122.4189 175° South 280 322 9,200  Level Oakland Center
10:16PM 37.1822 -121.9985 133° Southeast  Level FlightAware Approximate
10:16PM 37.4672 -122.3767 156° South 315 362 10,900  Level Oakland Center
10:17PM 37.4003 -122.3025 139° Southeast 323 372 12,800 1,620 Climbing Oakland Center
10:18PM 37.3297 -122.2256 139° Southeast 333 383 14,300 1,440 Climbing Oakland Center
10:19PM 37.2556 -122.1447 139° Southeast 349 402 15,800 1,440 Climbing Oakland Center
10:20PM 37.1783 -122.0622 140° Southeast 361 415 17,300 1,380 Climbing Oakland Center
10:21PM 37.1019 -121.9783 139° Southeast 366 421 18,700 1,380 Climbing Oakland Center
10:22PM 37.0247 -121.8939 139° Southeast 369 425 20,200 1,620 Climbing Oakland Center
10:23PM 36.9314 -121.7933 139° Southeast 370 426 22,000 1,560 Climbing Oakland Center
10:24PM 36.8556 -121.7111 139° Southeast 363 418 23,500 1,320 Climbing Oakland Center
10:25PM 36.7911 -121.6433 140° Southeast 357 411 24,800 1,140 Climbing Oakland Center
10:26PM 36.7025 -121.5486 139° Southeast 353 406 25,900 900 Climbing Oakland Center
10:27PM 36.6258 -121.4644 139° Southeast 364 419 26,700 540 Climbing Oakland Center
10:28PM 36.5458 -121.3803 140° Southeast 375 432 27,000 120 Climbing Oakland Center
10:29PM 36.4619 -121.2903 139° Southeast 397 457 27,000  Level Oakland Center
10:30PM 36.3733 -121.1978 140° Southeast 414 476 27,000  Level Oakland Center
10:31PM 36.2842 -121.1031 139° Southeast 421 484 27,000  Level Oakland Center
10:32PM 36.1944 -121.0072 139° Southeast 424 488 27,000  Level Oakland Center
10:33PM 36.1039 -120.9122 140° Southeast 427 491 27,000  Level Oakland Center
10:34PM 36.0125 -120.8172 140° Southeast 427 491 27,000  Level Oakland Center
10:35PM 35.9219 -120.7203 139° Southeast 431 496 27,000  Level Oakland Center
10:36PM 35.8133 -120.6078 140° Southeast 425 489 27,000  Level Oakland Center
10:37PM 35.7225 -120.5136 140° Southeast 427 491 27,000  Level Oakland Center
10:38PM 35.6311 -120.4178 140° Southeast 427 491 27,000  Level Oakland Center
10:39PM 35.5392 -120.3231 140° Southeast 427 491 27,000  Level Oakland Center
10:41PM 35.4253 -120.2089 141° Southeast 429 494 27,000  Level Los Angeles Center
10:42PM 35.3331 -120.1114 139° Southeast 429 494 27,000  Level Los Angeles Center
10:43PM 35.2425 -120.0161 139° Southeast 429 494 27,000  Level Los Angeles Center
10:44PM 35.1511 -119.9233 140° Southeast 428 493 27,000  Level Los Angeles Center
10:45PM 35.0625 -119.8283 139° Southeast 426 490 27,000 -300 Level Los Angeles Center
10:46PM 34.9850 -119.7186 131° Southeast 426 490 26,500 -1,800 Descending Los Angeles Center
10:47PM 34.9042 -119.6081 132° Southeast 431 496 23,400 -3,000 Descending Los Angeles Center
10:48PM 34.8061 -119.4783 133° Southeast 435 501 19,800 -3,180 Descending Los Angeles Center
10:49PM 34.7119 -119.3539 133° Southeast 425 489 16,300 -3,180 Descending Los Angeles Center
10:50PM 34.6383 -119.2528 131° Southeast 411 473 13,300 -2,580 Descending Los Angeles Center
10:51PM 34.5653 -119.1586 133° Southeast 391 450 11,100 -1,140 Descending Los Angeles Center
10:52PM 34.5042 -119.0767 132° Southeast 324 373 11,000 -180 Descending Los Angeles Center
10:53PM 34.4475 -119.0003 132° Southeast 303 349 10,800 -780 Descending Los Angeles Center
10:54PM 34.4031 -118.9353 130° Southeast 310 357 9,500 -1,680 Descending Los Angeles Center
10:55PM 34.3336 -118.8225 127° Southeast 296 341 7,400 -1,800 Descending Los Angeles Center
10:56PM 34.2872 -118.7517 128° Southeast 274 315 5,900 -1,200 Descending Los Angeles Center
10:57PM 34.2417 -118.6781 127° Southeast 272 313 5,000 -840 Descending Los Angeles Center
10:58PM 34.2014 -118.6092 125° Southeast 263 303 4,300 -780 Descending Los Angeles Center
10:59PM 34.2006 -118.5431 91° East 217 250 3,400 -780 Descending Los Angeles Center
11:00PM 34.2000 -118.4881 91° East 184 212 2,800 -780 Descending Los Angeles Center
11:01PM 34.1992 -118.4386 91° East 165 190 1,900 -780 Descending Los Angeles Center
11:02PM 34.1992 -118.3875 90° East 154 177 1,300 -600 Descending Los Angeles Center